Time;durP1;ratioP1;P1;durP2;ratioP2;P2;SDS_P1;SDS_P2;PMS_P1;PMS_P2;Temp;Humidity;BMP_temperature;BMP_pressure;BME280_temperature;BME280_humidity;BME280_pressure;Samples;Min_cycle;Max_cycle;Signal;HPM_P1;HPM_P2
2023/06/14 00:00:34;;;;;;;6.05;2.22;;;;;;;21.03;31.99;99831.56;4985392;28;20058;-78
2023/06/14 00:03:00;;;;;;;5.63;1.90;;;;;;;20.99;32.13;99838.22;4971527;28;20469;-78
2023/06/14 00:05:29;;;;;;;4.00;1.70;;;;;;;20.93;32.42;99837.03;4979872;28;20055;-78
2023/06/14 00:07:56;;;;;;;3.13;2.00;;;;;;;20.87;32.43;99830.47;4990080;28;20064;-78
2023/06/14 00:10:22;;;;;;;5.40;2.10;;;;;;;20.84;32.23;99838.75;4972547;28;20076;-78
2023/06/14 00:12:49;;;;;;;7.15;2.08;;;;;;;20.78;32.50;99840.19;4990793;28;20065;-78
2023/06/14 00:15:16;;;;;;;3.22;1.98;;;;;;;20.73;32.93;99841.63;4990383;28;20053;-78
2023/06/14 00:17:44;;;;;;;2.53;1.73;;;;;;;20.68;32.94;99845.59;4990357;28;20501;-79
2023/06/14 00:20:11;;;;;;;1.80;1.65;;;;;;;20.63;33.12;99839.06;4990656;28;20062;-78
2023/06/14 00:22:38;;;;;;;7.00;1.90;;;;;;;20.58;33.08;99839.50;4973869;28;20142;-78
2023/06/14 00:25:06;;;;;;;2.97;2.00;;;;;;;20.53;32.95;99839.09;4959126;28;20043;-78
2023/06/14 00:27:56;;;;;;;5.35;2.28;;;;;;;20.48;33.38;99849.41;4990481;28;20120;-79
2023/06/14 00:30:23;;;;;;;2.55;1.73;;;;;;;20.44;33.41;99843.50;4990569;28;20058;-78
2023/06/14 00:32:51;;;;;;;2.28;1.80;;;;;;;20.39;33.20;99846.66;4976107;28;20142;-79
2023/06/14 00:35:18;;;;;;;2.78;1.77;;;;;;;20.35;33.38;99841.75;4957768;28;20054;-79
2023/06/14 00:37:44;;;;;;;2.22;1.92;;;;;;;20.29;33.40;99841.34;4974819;28;20058;-79
2023/06/14 00:40:10;;;;;;;3.10;1.95;;;;;;;20.24;33.99;99842.78;4974928;28;20081;-79
2023/06/14 00:42:37;;;;;;;2.47;1.92;;;;;;;20.21;33.79;99848.41;4975814;28;20059;-79
2023/06/14 00:45:04;;;;;;;5.13;2.17;;;;;;;20.14;34.01;99854.38;4974508;28;20050;-79
2023/06/14 00:47:30;;;;;;;3.88;1.73;;;;;;;20.08;34.21;99848.78;4974421;28;20134;-78
2023/06/14 00:49:58;;;;;;;3.58;2.25;;;;;;;20.02;34.80;99848.38;4974653;28;20145;-78
2023/06/14 00:52:25;;;;;;;6.25;2.10;;;;;;;19.98;34.68;99848.78;4981136;28;20054;-79
2023/06/14 00:54:51;;;;;;;3.75;2.00;;;;;;;19.94;34.83;99856.25;4992868;28;20046;-78
2023/06/14 00:57:20;;;;;;;4.95;2.03;;;;;;;19.88;34.74;99863.00;4994047;28;20661;-78
2023/06/14 00:59:48;;;;;;;3.53;1.67;;;;;;;19.84;35.07;99858.13;4994030;28;20051;-78
2023/06/14 01:02:15;;;;;;;4.22;1.90;;;;;;;19.80;34.73;99865.56;4983865;28;20109;-79
2023/06/14 01:04:45;;;;;;;3.88;2.00;;;;;;;19.73;35.09;99859.13;4987318;28;20058;-79
2023/06/14 01:07:20;;;;;;;3.30;2.05;;;;;;;19.68;35.38;99859.56;4993803;28;20058;-79
2023/06/14 01:10:15;;;;;;;2.88;1.67;;;;;;;19.61;35.54;99858.44;4991952;28;20505;-79
2023/06/14 01:12:51;;;;;;;5.72;1.80;;;;;;;19.59;35.28;99863.09;4993980;28;20065;-79
2023/06/14 01:15:20;;;;;;;6.75;1.95;;;;;;;19.53;35.64;99869.84;4993612;28;20464;-78
2023/06/14 01:17:51;;;;;;;2.55;1.92;;;;;;;19.47;35.78;99865.09;4993601;28;20121;-78
2023/06/14 01:20:21;;;;;;;4.07;1.80;;;;;;;19.41;36.17;99869.19;4985511;28;20050;-79
2023/06/14 01:22:52;;;;;;;5.10;2.05;;;;;;;19.36;36.27;99877.59;4974134;28;20094;-79
2023/06/14 01:25:23;;;;;;;4.30;1.90;;;;;;;19.32;35.71;99878.03;4973911;28;20078;-79
2023/06/14 01:27:52;;;;;;;3.33;1.80;;;;;;;19.27;36.00;99879.31;4973825;28;20513;-79
2023/06/14 01:30:21;;;;;;;2.35;1.83;;;;;;;19.24;36.02;99884.06;4965290;28;20054;-79
2023/06/14 01:32:50;;;;;;;3.90;1.83;;;;;;;19.18;36.09;99880.16;4993545;28;20058;-79
2023/06/14 01:35:16;;;;;;;5.90;2.28;;;;;;;19.14;36.07;99884.91;4993267;28;20050;-79
2023/06/14 01:37:46;;;;;;;3.42;1.95;;;;;;;19.10;36.51;99880.84;4993125;28;20574;-79
2023/06/14 01:40:15;;;;;;;3.35;2.00;;;;;;;19.05;36.51;99882.19;4988258;28;20057;-79
2023/06/14 01:42:43;;;;;;;2.72;1.80;;;;;;;19.01;36.58;99881.66;4973919;28;20065;-78
2023/06/14 01:45:10;;;;;;;5.32;2.25;;;;;;;18.98;36.73;99874.75;4973609;28;20055;-79
2023/06/14 01:47:37;;;;;;;5.57;2.63;;;;;;;18.96;36.90;99881.22;4973555;28;20054;-79
2023/06/14 01:50:04;;;;;;;4.05;1.98;;;;;;;18.92;36.57;99882.47;4974353;28;20059;-78
2023/06/14 01:52:30;;;;;;;4.28;2.20;;;;;;;18.87;36.71;99878.41;4970919;28;20177;-78
2023/06/14 01:54:57;;;;;;;3.47;2.13;;;;;;;18.85;36.80;99883.06;4981245;28;20054;-78
2023/06/14 01:57:26;;;;;;;3.95;2.00;;;;;;;18.81;37.21;99880.78;4992949;28;20096;-79
2023/06/14 01:59:53;;;;;;;4.63;2.00;;;;;;;18.78;37.11;99878.38;4993045;28;20077;-78
2023/06/14 02:02:19;;;;;;;5.05;2.20;;;;;;;18.74;37.02;99876.03;4976060;28;20062;-78
2023/06/14 02:04:47;;;;;;;4.95;1.90;;;;;;;18.71;37.22;99867.44;4973074;28;20058;-78
2023/06/14 02:07:14;;;;;;;4.80;2.15;;;;;;;18.67;37.83;99872.22;4956262;28;20059;-78
2023/06/14 02:09:41;;;;;;;5.13;1.80;;;;;;;18.64;37.62;99868.97;4973048;28;20093;-78
2023/06/14 02:12:08;;;;;;;3.08;1.92;;;;;;;18.58;37.75;99878.38;4985643;28;20060;-78
2023/06/14 02:14:35;;;;;;;4.80;1.95;;;;;;;18.54;37.88;99880.44;4992458;28;20054;-78
2023/06/14 02:17:01;;;;;;;2.88;1.98;;;;;;;18.52;37.81;99879.75;4992296;28;20054;-78
2023/06/14 02:19:28;;;;;;;5.22;2.65;;;;;;;18.47;37.94;99874.81;4992388;28;20058;-78
2023/06/14 02:21:54;;;;;;;5.05;1.95;;;;;;;18.44;37.93;99884.91;4984460;28;20054;-78
2023/06/14 02:24:21;;;;;;;2.50;1.88;;;;;;;18.39;38.12;99885.31;4972961;28;20051;-78
2023/06/14 02:26:48;;;;;;;2.83;1.92;;;;;;;18.35;38.15;99879.41;4972689;28;20066;-78
2023/06/14 02:29:14;;;;;;;8.13;2.55;;;;;;;18.33;38.49;99885.88;4972867;28;20062;-79
2023/06/14 02:31:41;;;;;;;7.72;2.05;;;;;;;18.28;38.49;99878.25;4958826;28;20057;-78
2023/06/14 02:34:10;;;;;;;5.43;1.95;;;;;;;18.26;38.39;99884.69;4992425;28;20065;-78
2023/06/14 02:36:41;;;;;;;6.57;2.13;;;;;;;18.24;38.49;99882.16;4992028;28;20067;-78
2023/06/14 02:39:11;;;;;;;2.70;1.80;;;;;;;18.22;38.85;99884.13;4992121;28;20101;-78
2023/06/14 02:41:39;;;;;;;4.88;2.38;;;;;;;18.22;38.81;99885.00;4974170;28;20085;-78
2023/06/14 02:44:06;;;;;;;3.58;2.25;;;;;;;18.20;38.69;99894.94;4969442;28;20306;-78
2023/06/14 02:46:33;;;;;;;5.05;2.22;;;;;;;18.19;38.63;99890.59;4972196;28;20058;-78
2023/06/14 02:48:59;;;;;;;3.50;1.73;;;;;;;18.16;38.91;99885.50;4955422;28;20054;-78
2023/06/14 02:51:26;;;;;;;7.45;2.13;;;;;;;18.13;39.40;99888.44;4972404;28;20482;-78
2023/06/14 02:53:52;;;;;;;4.05;2.25;;;;;;;18.12;39.33;99889.41;4970218;28;20429;-78
2023/06/14 02:56:19;;;;;;;5.15;2.17;;;;;;;18.11;39.65;99893.06;4991202;28;20433;-78
2023/06/14 02:58:46;;;;;;;7.72;2.58;;;;;;;18.10;39.38;99897.53;4991486;28;20425;-78
2023/06/14 03:01:13;;;;;;;4.80;2.00;;;;;;;18.08;39.41;99901.31;4991929;28;20358;-78
2023/06/14 03:03:40;;;;;;;6.95;2.35;;;;;;;18.05;39.33;99907.72;4987020;28;20050;-78
2023/06/14 03:06:08;;;;;;;5.00;2.03;;;;;;;18.02;39.51;99905.31;4955033;28;20062;-78
2023/06/14 03:08:38;;;;;;;2.60;1.95;;;;;;;17.99;39.39;99908.25;4971706;28;20524;-78
2023/06/14 03:11:05;;;;;;;4.85;2.10;;;;;;;17.96;39.70;99913.84;4972153;28;20062;-78
2023/06/14 03:13:32;;;;;;;4.32;2.63;;;;;;;17.90;39.90;99917.06;4968338;28;20066;-78
2023/06/14 03:15:59;;;;;;;4.43;2.10;;;;;;;17.85;39.90;99928.09;4974940;28;20133;-78
2023/06/14 03:18:26;;;;;;;4.70;2.13;;;;;;;17.81;39.94;99924.00;4991379;28;20058;-78
2023/06/14 03:20:53;;;;;;;7.50;2.38;;;;;;;17.78;40.02;99924.25;4991515;28;20069;-78
2023/06/14 03:23:21;;;;;;;4.18;2.10;;;;;;;17.74;40.28;99923.66;4973485;28;20142;-78
2023/06/14 03:25:47;;;;;;;3.78;2.22;;;;;;;17.71;40.40;99926.59;4971858;28;20424;-78
2023/06/14 03:28:14;;;;;;;6.90;2.00;;;;;;;17.67;40.65;99928.66;4972288;28;20477;-78
2023/06/14 03:30:40;;;;;;;2.92;2.20;;;;;;;17.65;40.67;99929.78;4972031;28;20051;-78
2023/06/14 03:33:08;;;;;;;3.45;2.40;;;;;;;17.62;40.79;99938.00;4955727;28;20101;-78
2023/06/14 03:35:35;;;;;;;6.90;1.98;;;;;;;17.57;40.68;99939.25;4971578;28;20058;-78
2023/06/14 03:38:02;;;;;;;3.90;2.30;;;;;;;17.55;40.78;99941.19;4972016;28;20055;-78
2023/06/14 03:40:29;;;;;;;3.60;2.20;;;;;;;17.52;41.00;99938.78;4971482;28;20054;-78
2023/06/14 03:42:55;;;;;;;3.25;2.22;;;;;;;17.50;41.47;99946.06;4980093;28;20062;-78
2023/06/14 03:45:22;;;;;;;4.25;2.40;;;;;;;17.50;41.00;99947.88;4990888;28;20054;-78
2023/06/14 03:47:48;;;;;;;4.32;2.50;;;;;;;17.48;41.33;99947.13;4991073;28;20062;-78
2023/06/14 03:50:15;;;;;;;3.38;2.10;;;;;;;17.45;41.48;99948.25;4990904;28;20092;-78
2023/06/14 03:52:43;;;;;;;5.30;2.45;;;;;;;17.45;41.49;99948.25;4986835;28;20410;-78
2023/06/14 03:55:11;;;;;;;3.75;2.58;;;;;;;17.43;41.69;99951.03;4971179;28;20062;-78
2023/06/14 03:57:40;;;;;;;3.45;2.33;;;;;;;17.41;41.71;99952.13;4971719;28;20414;-78
2023/06/14 04:00:09;;;;;;;3.80;2.28;;;;;;;17.41;41.95;99949.47;4971635;28;20055;-78
2023/06/14 04:02:36;;;;;;;5.10;2.30;;;;;;;17.41;41.96;99955.66;4971460;28;20074;-78
2023/06/14 04:05:03;;;;;;;3.55;2.10;;;;;;;17.40;42.42;99961.94;4989482;28;20057;-78
2023/06/14 04:07:30;;;;;;;5.35;2.38;;;;;;;17.41;42.45;99962.78;4989684;28;20058;-78
2023/06/14 04:09:56;;;;;;;4.90;1.85;;;;;;;17.41;42.44;99968.94;4990561;28;20133;-78
2023/06/14 04:12:23;;;;;;;2.80;2.20;;;;;;;17.44;42.40;99970.50;4990847;28;20060;-78
2023/06/14 04:14:49;;;;;;;5.10;2.38;;;;;;;17.45;42.48;99972.19;4974942;28;20505;-78
2023/06/14 04:17:16;;;;;;;3.47;2.50;;;;;;;17.45;42.52;99973.06;4971249;28;20065;-78
2023/06/14 04:19:42;;;;;;;3.75;2.25;;;;;;;17.47;42.87;99977.41;4971634;28;20172;-78
2023/06/14 04:22:10;;;;;;;6.30;2.53;;;;;;;17.49;42.95;99981.63;4971053;28;20054;-78
2023/06/14 04:24:36;;;;;;;2.55;2.15;;;;;;;17.50;43.00;99982.47;4964584;28;20065;-78
2023/06/14 04:27:03;;;;;;;3.13;2.30;;;;;;;17.54;42.80;99986.56;4990398;28;20062;-78
2023/06/14 04:29:31;;;;;;;5.80;2.85;;;;;;;17.55;43.19;99982.94;4990628;28;20085;-78
2023/06/14 04:32:01;;;;;;;2.33;2.03;;;;;;;17.57;42.95;99991.66;4990480;28;20066;-78
2023/06/14 04:34:29;;;;;;;5.18;2.35;;;;;;;17.59;43.29;100000.34;4983371;28;20478;-78
2023/06/14 04:36:56;;;;;;;5.32;2.30;;;;;;;17.62;43.24;99994.75;4981146;28;20065;-78
2023/06/14 04:39:22;;;;;;;3.45;2.65;;;;;;;17.65;43.20;99999.00;4988581;28;20493;-78
2023/06/14 04:41:56;;;;;;;3.53;2.28;;;;;;;17.68;43.06;99998.75;4990153;28;20054;-78
2023/06/14 04:44:29;;;;;;;3.40;2.53;;;;;;;17.72;42.92;100000.19;4986783;28;20145;-78
2023/06/14 04:46:59;;;;;;;;;;;;;;;17.77;41.93;100011.28;4971257;28;20073;-78
2023/06/14 04:49:27;;;;;;;4.13;2.38;;;;;;;17.84;42.68;100015.09;4971027;28;19922;-78
2023/06/14 04:51:59;;;;;;;6.32;2.53;;;;;;;17.89;42.87;100017.38;4971059;28;20094;-78
2023/06/14 04:54:25;;;;;;;3.78;2.22;;;;;;;17.92;42.99;100017.13;4971538;28;20079;-78
2023/06/14 04:56:53;;;;;;;2.58;2.20;;;;;;;17.97;43.15;100014.06;4975450;28;20046;-78
2023/06/14 04:59:19;;;;;;;6.80;2.72;;;;;;;18.01;43.33;100018.16;4990264;28;20145;-78
2023/06/14 05:01:48;;;;;;;2.97;2.22;;;;;;;18.07;43.16;100017.66;4972077;28;20059;-78
2023/06/14 05:04:16;;;;;;;6.97;2.67;;;;;;;18.13;43.58;100020.81;4971000;28;20082;-78
2023/06/14 05:06:47;;;;;;;4.85;2.45;;;;;;;18.18;43.34;100013.25;4970632;28;20055;-78
2023/06/14 05:09:16;;;;;;;6.35;2.92;;;;;;;18.23;43.33;100022.56;4968301;23;20480;-79
2023/06/14 05:11:43;;;;;;;4.03;2.33;;;;;;;18.29;43.11;100018.53;4973485;28;20054;-79
2023/06/14 05:14:11;;;;;;;5.75;2.28;;;;;;;18.34;43.29;100010.13;4990736;28;20061;-78
2023/06/14 05:16:37;;;;;;;5.03;2.40;;;;;;;18.39;43.16;100015.06;4990339;28;20569;-78
2023/06/14 05:19:07;;;;;;;8.23;2.30;;;;;;;18.46;43.13;100024.19;4992295;28;20058;-78
2023/06/14 05:21:37;;;;;;;5.18;2.35;;;;;;;18.51;43.15;100023.81;4993919;28;20493;-78
2023/06/14 05:24:09;;;;;;;6.15;2.22;;;;;;;18.55;43.44;100020.78;4994196;28;20050;-78
2023/06/14 05:26:35;;;;;;;3.85;2.90;;;;;;;18.60;43.25;100018.53;4993856;28;20051;-78
2023/06/14 05:29:02;;;;;;;4.43;2.47;;;;;;;18.65;42.96;100023.47;4993971;28;20054;-79
2023/06/14 05:31:29;;;;;;;4.30;2.03;;;;;;;18.71;43.06;100020.28;4992716;28;20116;-78
2023/06/14 05:33:55;;;;;;;2.63;2.10;;;;;;;18.76;43.41;100014.50;4993999;28;20087;-78
2023/06/14 05:36:22;;;;;;;3.35;2.70;;;;;;;18.83;43.22;100022.81;4993902;28;20061;-78
2023/06/14 05:38:48;;;;;;;4.03;2.30;;;;;;;18.89;43.53;100025.78;4993655;28;20531;-78
2023/06/14 05:41:15;;;;;;;5.50;2.10;;;;;;;18.93;43.31;100026.38;4993855;28;20061;-78
2023/06/14 05:43:41;;;;;;;8.30;2.20;;;;;;;18.98;43.08;100021.47;4993694;28;20525;-79
2023/06/14 05:46:08;;;;;;;4.43;2.30;;;;;;;19.05;43.24;100027.16;4993707;28;20050;-78
2023/06/14 05:48:34;;;;;;;11.73;2.88;;;;;;;19.11;43.16;100029.25;4992180;28;20501;-80
2023/06/14 05:51:00;;;;;;;7.78;2.47;;;;;;;19.16;43.15;100031.53;4993850;28;20093;-79
2023/06/14 05:53:27;;;;;;;4.85;2.50;;;;;;;19.22;43.27;100036.31;4992185;28;20066;-79
2023/06/14 05:55:54;;;;;;;5.07;2.30;;;;;;;19.27;43.20;100033.22;4993451;28;20058;-79
2023/06/14 05:58:21;;;;;;;7.60;2.58;;;;;;;19.34;43.31;100036.19;4993168;28;20069;-79
2023/06/14 06:00:48;;;;;;;5.40;2.53;;;;;;;19.41;42.91;100040.00;4993699;28;20146;-79
2023/06/14 06:03:14;;;;;;;6.28;2.53;;;;;;;19.49;43.13;100050.00;4993562;28;20054;-79
2023/06/14 06:05:41;;;;;;;6.95;2.40;;;;;;;19.55;43.04;100045.94;4993345;28;20472;-79
2023/06/14 06:08:07;;;;;;;3.55;2.10;;;;;;;19.59;42.79;100047.34;4991995;28;20073;-79
2023/06/14 06:10:34;;;;;;;5.65;2.30;;;;;;;19.65;42.75;100050.28;4993073;28;20525;-79
2023/06/14 06:13:00;;;;;;;3.70;2.30;;;;;;;19.71;42.59;100056.06;4993153;28;20058;-80
2023/06/14 06:15:27;;;;;;;5.43;2.45;;;;;;;19.75;42.67;100058.31;4992942;28;20058;-79
2023/06/14 06:17:53;;;;;;;4.07;2.25;;;;;;;19.80;42.81;100060.53;4993108;28;20065;-79
2023/06/14 06:20:29;;;;;;;2.92;2.55;;;;;;;19.84;42.69;100055.78;4992148;28;20108;-79
2023/06/14 06:22:59;;;;;;;6.65;2.15;;;;;;;19.89;42.96;100059.69;4993025;28;20054;-79
2023/06/14 06:25:31;;;;;;;2.90;2.30;;;;;;;19.93;43.02;100058.44;4992766;28;20051;-85
2023/06/14 06:27:58;;;;;;;4.27;2.43;;;;;;;20.00;42.83;100055.25;4992925;28;20134;-79
2023/06/14 06:30:25;;;;;;;4.25;2.60;;;;;;;20.05;42.83;100056.50;4992123;28;20062;-79
2023/06/14 06:32:51;;;;;;;5.32;2.38;;;;;;;20.13;42.38;100061.13;4992855;28;20054;-79
2023/06/14 06:35:18;;;;;;;2.67;2.33;;;;;;;20.18;42.67;100058.00;4975306;28;20142;-79
2023/06/14 06:37:45;;;;;;;7.53;2.40;;;;;;;20.23;42.42;100061.13;4992641;28;20429;-80
2023/06/14 06:40:12;;;;;;;5.13;2.47;;;;;;;20.28;42.09;100058.00;4992916;28;20065;-79
2023/06/14 06:42:38;;;;;;;4.63;2.10;;;;;;;20.31;41.87;100058.56;4992830;28;20401;-79
2023/06/14 06:45:05;;;;;;;3.05;1.70;;;;;;;20.33;42.29;100062.94;4992629;28;20077;-79
2023/06/14 06:47:32;;;;;;;5.53;1.88;;;;;;;20.36;41.90;100068.84;4992433;28;20069;-79
2023/06/14 06:49:58;;;;;;;3.30;2.00;;;;;;;20.38;42.01;100064.19;4992437;28;20054;-79
2023/06/14 06:52:25;;;;;;;3.92;1.90;;;;;;;20.44;41.87;100078.78;4992382;28;20090;-79
2023/06/14 06:54:54;;;;;;;3.85;2.00;;;;;;;20.48;42.22;100074.84;4992496;28;20058;-79
2023/06/14 06:57:22;;;;;;;2.90;2.10;;;;;;;20.53;42.23;100074.44;4992397;28;20058;-79
2023/06/14 06:59:49;;;;;;;2.75;1.83;;;;;;;20.60;42.14;100077.34;4992480;28;20080;-79
2023/06/14 07:02:16;;;;;;;2.83;1.63;;;;;;;20.65;41.64;100086.63;4992268;28;20527;-79
2023/06/14 07:04:43;;;;;;;4.03;2.00;;;;;;;20.71;41.84;100079.88;4992246;28;20410;-79
2023/06/14 07:07:09;;;;;;;3.85;2.00;;;;;;;20.78;41.86;100082.81;4991966;28;20066;-79
2023/06/14 07:09:36;;;;;;;4.13;2.03;;;;;;;20.85;41.82;100080.38;4991958;28;20145;-79
2023/06/14 07:12:03;;;;;;;4.88;1.70;;;;;;;20.91;41.52;100087.84;4992339;28;20425;-79
2023/06/14 07:14:30;;;;;;;2.92;1.50;;;;;;;20.98;41.30;100088.09;4992142;28;20065;-79
2023/06/14 07:16:56;;;;;;;1.95;1.58;;;;;;;21.01;41.12;100085.13;4991911;28;20062;-79
2023/06/14 07:19:22;;;;;;;2.00;1.30;;;;;;;21.06;41.37;100088.19;4992007;28;20505;-79
2023/06/14 07:21:49;;;;;;;3.28;1.38;;;;;;;21.11;41.03;100091.28;4992213;28;20065;-79
2023/06/14 07:24:15;;;;;;;2.65;1.45;;;;;;;21.16;41.06;100099.69;4991884;28;20090;-78
2023/06/14 07:26:42;;;;;;;5.22;1.90;;;;;;;21.22;40.66;100098.25;4974554;28;20061;-79
2023/06/14 07:29:08;;;;;;;2.28;1.42;;;;;;;21.27;40.45;100100.50;4991750;28;20401;-79
2023/06/14 07:31:35;;;;;;;2.38;1.30;;;;;;;21.30;40.06;100098.34;4992003;28;20062;-79
2023/06/14 07:34:01;;;;;;;5.38;1.60;;;;;;;21.34;40.10;100096.22;4991767;28;20464;-79
2023/06/14 07:36:28;;;;;;;1.60;1.27;;;;;;;21.37;40.07;100097.78;4991745;28;20489;-79
2023/06/14 07:38:55;;;;;;;2.17;1.42;;;;;;;21.39;40.02;100093.94;4990533;28;20054;-79
2023/06/14 07:41:21;;;;;;;3.38;1.50;;;;;;;21.41;40.45;100096.50;4990412;28;20058;-79
2023/06/14 07:43:51;;;;;;;4.45;1.65;;;;;;;21.42;39.80;100098.16;4991615;28;20122;-79
2023/06/14 07:46:18;;;;;;;2.88;1.55;;;;;;;21.47;39.91;100090.50;4973970;28;20520;-78
2023/06/14 07:48:44;;;;;;;4.07;1.52;;;;;;;21.51;40.21;100099.94;4991164;28;20081;-79
2023/06/14 07:51:11;;;;;;;2.85;1.50;;;;;;;21.56;40.27;100102.16;4991518;28;20054;-79
2023/06/14 07:53:37;;;;;;;2.42;1.60;;;;;;;21.61;40.06;100092.66;4990957;28;20093;-80
2023/06/14 07:56:03;;;;;;;2.17;1.70;;;;;;;21.66;39.80;100089.53;4989283;28;20061;-79
2023/06/14 07:58:30;;;;;;;3.38;1.55;;;;;;;21.71;39.50;100089.94;4989543;28;20068;-79
2023/06/14 08:00:56;;;;;;;3.30;1.80;;;;;;;21.78;39.39;100095.53;4991356;28;20057;-79
2023/06/14 08:03:23;;;;;;;2.08;1.42;;;;;;;21.83;39.60;100101.28;4991413;28;20497;-79
2023/06/14 08:05:50;;;;;;;3.95;1.80;;;;;;;21.87;39.51;100097.31;4990957;28;20089;-79
2023/06/14 08:08:17;;;;;;;3.88;1.50;;;;;;;21.93;39.39;100093.16;4990799;28;20536;-79
2023/06/14 08:10:44;;;;;;;5.30;1.77;;;;;;;22.00;39.32;100088.03;4991212;28;20069;-79
2023/06/14 08:13:10;;;;;;;3.10;1.52;;;;;;;22.06;39.89;100090.13;4990974;28;20054;-79
2023/06/14 08:15:36;;;;;;;5.90;1.42;;;;;;;22.14;39.81;100102.75;4990895;28;20066;-79
2023/06/14 08:18:03;;;;;;;1.63;1.38;;;;;;;22.22;39.45;100105.50;4990867;28;20515;-79
2023/06/14 08:20:31;;;;;;;2.38;1.60;;;;;;;22.28;38.76;100100.50;4991355;28;20094;-79
2023/06/14 08:22:58;;;;;;;8.95;1.48;;;;;;;22.35;38.65;100098.88;4989727;28;20046;-80
2023/06/14 08:25:25;;;;;;;4.80;1.65;;;;;;;22.40;38.77;100109.97;4990907;28;20054;-79
2023/06/14 08:27:52;;;;;;;3.83;1.27;;;;;;;22.45;38.12;100104.13;4990783;28;20059;-79
2023/06/14 08:30:19;;;;;;;1.80;1.17;;;;;;;22.49;38.00;100106.34;4990959;28;20065;-79
2023/06/14 08:32:45;;;;;;;7.88;1.48;;;;;;;22.51;37.48;100096.28;4991402;28;20058;-78
2023/06/14 08:35:15;;;;;;;4.57;1.30;;;;;;;22.55;37.48;100106.75;4991122;28;20153;-78
2023/06/14 08:37:42;;;;;;;6.63;1.20;;;;;;;22.56;37.11;100106.59;4991112;28;20046;-78
2023/06/14 08:40:17;;;;;;;2.50;1.20;;;;;;;22.55;37.17;100104.06;4991062;28;20505;-79
2023/06/14 08:42:45;;;;;;;1.60;1.10;;;;;;;22.60;37.15;100107.09;4991179;28;20173;-79
2023/06/14 08:45:11;;;;;;;1.60;1.02;;;;;;;22.61;36.95;100103.44;4991112;28;20061;-79
2023/06/14 08:47:39;;;;;;;1.17;1.00;;;;;;;22.63;36.50;100104.13;4990811;28;20521;-78
2023/06/14 08:50:08;;;;;;;2.72;0.90;;;;;;;22.64;36.96;100105.78;4990961;28;20078;-80
2023/06/14 08:53:01;;;;;;;2.22;1.00;;;;;;;22.65;37.12;100105.63;4991246;28;20137;-79
2023/06/14 08:55:30;;;;;;;1.65;0.90;;;;;;;22.70;37.06;100098.97;4995913;28;20119;-80
2023/06/14 08:58:03;;;;;;;2.70;1.10;;;;;;;22.77;37.17;100111.56;4994591;28;20508;-79
2023/06/14 09:00:30;;;;;;;2.70;1.00;;;;;;;22.85;37.03;100107.25;4994827;28;20103;-79
2023/06/14 09:02:59;;;;;;;4.25;0.88;;;;;;;22.91;36.88;100109.28;4994728;28;20065;-79
2023/06/14 09:05:27;;;;;;;1.77;0.93;;;;;;;22.97;36.86;100122.09;4991483;28;20051;-79
2023/06/14 09:08:00;;;;;;;4.88;1.38;;;;;;;23.04;36.86;100104.34;4988654;28;20106;-79
2023/06/14 09:10:36;;;;;;;1.42;1.13;;;;;;;23.16;37.11;100117.47;4973006;28;20185;-79
2023/06/14 09:13:05;;;;;;;1.40;1.25;;;;;;;23.24;36.78;100117.50;4972065;28;20054;-79
2023/06/14 09:15:32;;;;;;;2.63;1.08;;;;;;;23.33;36.06;100112.16;4974654;28;20062;-79
2023/06/14 09:18:01;;;;;;;1.77;1.30;;;;;;;23.40;35.78;100113.25;4973389;28;20114;-79
2023/06/14 09:20:30;;;;;;;1.95;1.23;;;;;;;23.46;36.01;100119.78;4974818;28;20137;-79
2023/06/14 09:22:56;;;;;;;2.42;1.02;;;;;;;23.50;35.53;100124.69;4974830;28;20145;-79
2023/06/14 09:25:24;;;;;;;2.03;1.13;;;;;;;23.52;36.34;100122.66;4957712;28;20055;-79
2023/06/14 09:28:06;;;;;;;2.20;1.10;;;;;;;23.54;36.04;100120.66;4974278;28;20142;-79
2023/06/14 09:30:33;;;;;;;1.15;0.98;;;;;;;23.59;36.05;100125.56;4972995;28;20068;-79
2023/06/14 09:32:59;;;;;;;2.20;1.08;;;;;;;23.63;36.43;100128.75;4973151;28;20071;-79
2023/06/14 09:35:30;;;;;;;1.58;1.20;;;;;;;23.67;36.58;100130.09;4973061;28;20062;-80
2023/06/14 09:37:57;;;;;;;1.75;1.05;;;;;;;23.72;35.73;100117.00;4972633;28;20527;-79
2023/06/14 09:40:24;;;;;;;0.88;0.88;;;;;;;23.77;36.01;100111.97;4972813;28;20528;-79
2023/06/14 09:42:52;;;;;;;6.57;1.33;;;;;;;23.84;35.62;100125.59;4972804;28;20051;-79
2023/06/14 09:45:21;;;;;;;3.70;1.10;;;;;;;23.89;35.66;100130.47;4974032;28;20516;-79
2023/06/14 09:47:51;;;;;;;3.15;1.40;;;;;;;23.94;35.75;100130.81;4957116;28;20054;-79
2023/06/14 09:50:32;;;;;;;3.72;1.05;;;;;;;24.00;35.65;100130.13;4974307;28;20066;-79
2023/06/14 09:53:05;;;;;;;0.98;0.98;;;;;;;24.03;36.61;100129.81;4974221;28;20062;-79
2023/06/14 09:55:35;;;;;;;;;;;;;;;24.11;36.47;100126.31;4974588;28;20058;-79
2023/06/14 09:58:05;;;;;;;1.95;1.00;;;;;;;24.25;36.27;100130.19;4974043;28;19922;-79
2023/06/14 10:00:34;;;;;;;2.67;0.98;;;;;;;24.34;36.37;100121.09;4974240;28;20121;-79
2023/06/14 10:03:10;;;;;;;3.10;0.98;;;;;;;24.45;35.89;100135.22;4974117;28;20101;-79
2023/06/14 10:05:37;;;;;;;2.33;1.20;;;;;;;24.54;35.71;100123.44;4974008;28;20055;-79
2023/06/14 10:08:18;;;;;;;1.98;0.95;;;;;;;24.60;35.27;100133.50;4972533;28;20057;-79
2023/06/14 10:10:45;;;;;;;4.70;1.30;;;;;;;24.69;35.34;100128.13;4973825;28;20501;-79
2023/06/14 10:13:12;;;;;;;3.17;1.52;;;;;;;24.73;35.06;100127.63;4974093;28;20090;-79
2023/06/14 10:15:58;;;;;;;2.15;1.00;;;;;;;24.74;35.56;100139.19;4956645;28;20141;-79
2023/06/14 10:18:40;;;;;;;2.55;1.35;;;;;;;24.83;35.20;100140.91;4972493;28;20160;-79
2023/06/14 10:21:27;;;;;;;6.22;1.50;;;;;;;24.84;34.54;100128.28;4957014;28;20322;-79
2023/06/14 10:24:00;;;;;;;1.75;1.17;;;;;;;24.91;35.24;100136.50;4973729;28;20493;-79
2023/06/14 10:26:27;;;;;;;7.28;1.48;;;;;;;24.94;34.70;100128.94;4972613;28;20467;-79
2023/06/14 10:29:07;;;;;;;0.93;0.80;;;;;;;24.98;34.86;100138.31;4973315;28;20054;-79
2023/06/14 10:31:44;;;;;;;1.15;1.00;;;;;;;25.05;34.70;100130.44;4973596;28;20059;-79
2023/06/14 10:34:27;;;;;;;3.22;1.10;;;;;;;25.17;34.92;100141.66;4973607;28;20059;-79
2023/06/14 10:37:04;;;;;;;1.08;0.90;;;;;;;25.26;34.42;100128.16;4973182;28;20055;-79
2023/06/14 10:39:32;;;;;;;3.22;0.98;;;;;;;25.39;34.54;100123.03;4972069;28;20063;-79
2023/06/14 10:42:01;;;;;;;2.80;1.00;;;;;;;25.53;34.75;100124.13;4956353;28;20062;-79
2023/06/14 10:44:28;;;;;;;1.50;0.90;;;;;;;25.71;34.49;100126.56;4973178;28;20512;-79
2023/06/14 10:46:57;;;;;;;1.52;1.10;;;;;;;25.95;34.48;100132.00;4972921;28;20502;-79
2023/06/14 10:49:45;;;;;;;4.57;1.30;;;;;;;26.25;33.92;100132.09;4973200;28;20055;-79
2023/06/14 10:52:16;;;;;;;1.30;1.02;;;;;;;26.67;34.18;100122.63;4973340;28;20058;-79
2023/06/14 10:55:10;;;;;;;1.00;0.90;;;;;;;27.13;33.52;100125.34;4971966;28;20065;-79
2023/06/14 10:57:45;;;;;;;2.80;1.15;;;;;;;27.67;32.60;100121.44;4972916;28;20059;-78
2023/06/14 11:00:22;;;;;;;4.68;1.10;;;;;;;28.13;32.07;100116.66;4972852;28;20066;-78
2023/06/14 11:03:11;;;;;;;4.10;0.88;;;;;;;28.53;32.13;100118.03;4973259;28;20058;-79
2023/06/14 11:05:54;;;;;;;1.70;0.98;;;;;;;28.93;31.61;100109.34;4972876;28;20445;-79
2023/06/14 11:11:06;;;;;;;1.63;1.10;;;;;;;29.67;30.06;100104.22;4959848;23;20046;-77
2023/06/14 11:13:33;;;;;;;2.13;1.20;;;;;;;29.96;29.68;100113.03;4992646;28;20050;-77
2023/06/14 11:16:00;;;;;;;1.20;1.10;;;;;;;30.20;29.13;100113.47;4974810;28;20061;-76
2023/06/14 11:18:28;;;;;;;2.45;0.80;;;;;;;30.39;29.12;100110.97;4991951;28;20530;-78
2023/06/14 11:20:55;;;;;;;0.90;0.70;;;;;;;30.63;29.84;100105.91;4992417;28;20050;-78
2023/06/14 11:23:23;;;;;;;1.38;0.80;;;;;;;30.88;29.08;100102.53;4991037;28;20447;-78
2023/06/14 11:25:53;;;;;;;1.90;1.00;;;;;;;31.12;28.01;100108.28;4991037;28;20054;-77
2023/06/14 11:28:21;;;;;;;1.25;0.70;;;;;;;31.36;28.64;100101.31;4992300;28;20059;-79
2023/06/14 11:31:01;;;;;;;3.65;0.98;;;;;;;31.55;27.92;100099.53;4992188;28;20810;-79
2023/06/14 11:33:28;;;;;;;3.17;0.95;;;;;;;31.79;27.13;100097.06;4992008;28;20062;-77
2023/06/14 11:35:55;;;;;;;2.90;0.98;;;;;;;31.94;26.55;100099.50;4992359;28;20075;-77
2023/06/14 11:38:21;;;;;;;0.98;0.88;;;;;;;32.06;26.29;100098.81;4991820;28;20487;-79